sensor_id;sensor_type;location;lat;lon;timestamp;P1;durP1;ratioP1;P2;durP2;ratioP2
21356;SDS011;10836;53.068;18.234;2022-08-21T00:00:18;14.82;;;6.13;;
21356;SDS011;10836;53.068;18.234;2022-08-21T00:03:06;18.55;;;6.65;;
21356;SDS011;10836;53.068;18.234;2022-08-21T00:05:36;14.05;;;6.15;;
21356;SDS011;10836;53.068;18.234;2022-08-21T00:08:06;15.07;;;6.35;;
21356;SDS011;10836;53.068;18.234;2022-08-21T00:10:33;18.05;;;6.93;;
21356;SDS011;10836;53.068;18.234;2022-08-21T00:13:02;19.73;;;6.47;;
21356;SDS011;10836;53.068;18.234;2022-08-21T00:15:32;10.95;;;5.60;;
21356;SDS011;10836;53.068;18.234;2022-08-21T00:18:02;15.55;;;6.78;;
21356;SDS011;10836;53.068;18.234;2022-08-21T00:20:30;15.93;;;7.00;;
21356;SDS011;10836;53.068;18.234;2022-08-21T00:22:58;14.32;;;6.55;;
21356;SDS011;10836;53.068;18.234;2022-08-21T00:25:26;16.80;;;6.82;;
21356;SDS011;10836;53.068;18.234;2022-08-21T00:27:54;18.88;;;6.95;;
21356;SDS011;10836;53.068;18.234;2022-08-21T00:30:22;23.90;;;6.53;;
21356;SDS011;10836;53.068;18.234;2022-08-21T00:32:52;15.75;;;6.20;;
21356;SDS011;10836;53.068;18.234;2022-08-21T00:35:23;12.95;;;6.68;;
21356;SDS011;10836;53.068;18.234;2022-08-21T00:37:56;15.15;;;6.68;;
21356;SDS011;10836;53.068;18.234;2022-08-21T00:40:28;14.88;;;6.82;;
21356;SDS011;10836;53.068;18.234;2022-08-21T00:43:02;18.42;;;7.82;;
21356;SDS011;10836;53.068;18.234;2022-08-21T00:45:31;15.50;;;7.03;;
21356;SDS011;10836;53.068;18.234;2022-08-21T00:47:58;13.70;;;6.85;;
21356;SDS011;10836;53.068;18.234;2022-08-21T00:50:27;14.80;;;6.72;;
21356;SDS011;10836;53.068;18.234;2022-08-21T00:52:58;13.73;;;6.78;;
21356;SDS011;10836;53.068;18.234;2022-08-21T00:55:28;15.75;;;7.35;;
21356;SDS011;10836;53.068;18.234;2022-08-21T00:57:58;15.35;;;7.22;;
21356;SDS011;10836;53.068;18.234;2022-08-21T01:00:29;13.18;;;6.30;;
21356;SDS011;10836;53.068;18.234;2022-08-21T01:03:00;17.35;;;6.82;;
21356;SDS011;10836;53.068;18.234;2022-08-21T01:05:34;13.13;;;7.53;;
21356;SDS011;10836;53.068;18.234;2022-08-21T01:08:03;17.35;;;7.80;;
21356;SDS011;10836;53.068;18.234;2022-08-21T01:10:31;14.65;;;6.97;;
21356;SDS011;10836;53.068;18.234;2022-08-21T01:12:59;16.73;;;7.10;;
21356;SDS011;10836;53.068;18.234;2022-08-21T01:15:28;15.63;;;7.03;;
21356;SDS011;10836;53.068;18.234;2022-08-21T01:18:00;12.40;;;6.13;;
21356;SDS011;10836;53.068;18.234;2022-08-21T01:20:34;15.25;;;6.88;;
21356;SDS011;10836;53.068;18.234;2022-08-21T01:23:03;14.52;;;7.65;;
21356;SDS011;10836;53.068;18.234;2022-08-21T01:25:32;12.23;;;7.28;;
21356;SDS011;10836;53.068;18.234;2022-08-21T01:28:02;14.65;;;7.13;;
21356;SDS011;10836;53.068;18.234;2022-08-21T01:30:35;15.23;;;6.97;;
21356;SDS011;10836;53.068;18.234;2022-08-21T01:33:05;16.40;;;7.20;;
21356;SDS011;10836;53.068;18.234;2022-08-21T01:35:32;16.50;;;8.35;;
21356;SDS011;10836;53.068;18.234;2022-08-21T01:38:00;15.52;;;7.93;;
21356;SDS011;10836;53.068;18.234;2022-08-21T01:40:27;15.68;;;7.22;;
21356;SDS011;10836;53.068;18.234;2022-08-21T01:42:54;18.77;;;7.35;;
21356;SDS011;10836;53.068;18.234;2022-08-21T01:45:21;12.60;;;7.43;;
21356;SDS011;10836;53.068;18.234;2022-08-21T01:47:49;15.15;;;7.78;;
21356;SDS011;10836;53.068;18.234;2022-08-21T01:50:17;14.50;;;7.30;;
21356;SDS011;10836;53.068;18.234;2022-08-21T01:52:45;12.27;;;7.03;;
21356;SDS011;10836;53.068;18.234;2022-08-21T01:55:14;11.95;;;6.13;;
21356;SDS011;10836;53.068;18.234;2022-08-21T01:57:44;13.35;;;6.90;;
21356;SDS011;10836;53.068;18.234;2022-08-21T02:00:13;19.67;;;7.72;;
21356;SDS011;10836;53.068;18.234;2022-08-21T02:02:42;14.13;;;7.20;;
21356;SDS011;10836;53.068;18.234;2022-08-21T02:05:10;14.70;;;7.22;;
21356;SDS011;10836;53.068;18.234;2022-08-21T02:07:39;12.18;;;6.85;;
21356;SDS011;10836;53.068;18.234;2022-08-21T02:10:09;15.63;;;7.05;;
21356;SDS011;10836;53.068;18.234;2022-08-21T02:12:38;10.27;;;6.32;;
21356;SDS011;10836;53.068;18.234;2022-08-21T02:15:06;15.48;;;7.32;;
21356;SDS011;10836;53.068;18.234;2022-08-21T02:17:38;12.73;;;6.60;;
21356;SDS011;10836;53.068;18.234;2022-08-21T02:20:11;15.43;;;6.85;;
21356;SDS011;10836;53.068;18.234;2022-08-21T02:22:46;12.93;;;7.13;;
21356;SDS011;10836;53.068;18.234;2022-08-21T02:25:13;14.73;;;7.45;;
21356;SDS011;10836;53.068;18.234;2022-08-21T02:27:42;15.48;;;7.53;;
21356;SDS011;10836;53.068;18.234;2022-08-21T02:30:12;18.42;;;7.07;;
21356;SDS011;10836;53.068;18.234;2022-08-21T02:32:44;14.05;;;7.25;;
21356;SDS011;10836;53.068;18.234;2022-08-21T02:35:12;16.25;;;7.43;;
21356;SDS011;10836;53.068;18.234;2022-08-21T02:37:43;11.73;;;7.07;;
21356;SDS011;10836;53.068;18.234;2022-08-21T02:40:13;17.70;;;7.72;;
21356;SDS011;10836;53.068;18.234;2022-08-21T02:42:42;16.65;;;7.82;;
21356;SDS011;10836;53.068;18.234;2022-08-21T02:45:11;14.68;;;7.60;;
21356;SDS011;10836;53.068;18.234;2022-08-21T02:47:46;16.83;;;7.80;;
21356;SDS011;10836;53.068;18.234;2022-08-21T02:50:22;14.98;;;7.85;;
21356;SDS011;10836;53.068;18.234;2022-08-21T02:52:53;15.50;;;8.73;;
21356;SDS011;10836;53.068;18.234;2022-08-21T02:55:25;17.58;;;9.15;;
21356;SDS011;10836;53.068;18.234;2022-08-21T02:57:55;18.83;;;9.88;;
21356;SDS011;10836;53.068;18.234;2022-08-21T03:00:25;23.17;;;15.60;;
21356;SDS011;10836;53.068;18.234;2022-08-21T03:02:54;19.20;;;10.27;;
21356;SDS011;10836;53.068;18.234;2022-08-21T03:05:23;24.65;;;9.45;;
21356;SDS011;10836;53.068;18.234;2022-08-21T03:07:51;12.95;;;7.97;;
21356;SDS011;10836;53.068;18.234;2022-08-21T03:10:19;20.50;;;10.07;;
21356;SDS011;10836;53.068;18.234;2022-08-21T03:12:47;25.83;;;15.07;;
21356;SDS011;10836;53.068;18.234;2022-08-21T03:15:16;18.10;;;12.38;;
21356;SDS011;10836;53.068;18.234;2022-08-21T03:17:45;25.90;;;10.95;;
21356;SDS011;10836;53.068;18.234;2022-08-21T03:20:15;18.88;;;10.18;;
21356;SDS011;10836;53.068;18.234;2022-08-21T03:22:44;17.80;;;9.50;;
21356;SDS011;10836;53.068;18.234;2022-08-21T03:25:19;14.80;;;8.80;;
21356;SDS011;10836;53.068;18.234;2022-08-21T03:28:00;18.85;;;10.20;;
21356;SDS011;10836;53.068;18.234;2022-08-21T03:30:28;19.77;;;10.30;;
21356;SDS011;10836;53.068;18.234;2022-08-21T03:32:58;19.30;;;11.40;;
21356;SDS011;10836;53.068;18.234;2022-08-21T03:35:26;18.35;;;10.98;;
21356;SDS011;10836;53.068;18.234;2022-08-21T03:37:54;18.98;;;10.90;;
21356;SDS011;10836;53.068;18.234;2022-08-21T03:40:22;24.45;;;11.00;;
21356;SDS011;10836;53.068;18.234;2022-08-21T03:42:50;19.38;;;11.00;;
21356;SDS011;10836;53.068;18.234;2022-08-21T03:45:18;19.10;;;11.05;;
21356;SDS011;10836;53.068;18.234;2022-08-21T03:50:19;16.15;;;10.82;;
21356;SDS011;10836;53.068;18.234;2022-08-21T03:52:47;17.38;;;10.68;;
21356;SDS011;10836;53.068;18.234;2022-08-21T03:55:14;21.50;;;11.13;;
21356;SDS011;10836;53.068;18.234;2022-08-21T03:57:42;20.08;;;9.70;;
21356;SDS011;10836;53.068;18.234;2022-08-21T04:00:11;18.95;;;9.65;;
21356;SDS011;10836;53.068;18.234;2022-08-21T04:02:40;23.48;;;9.60;;
21356;SDS011;10836;53.068;18.234;2022-08-21T04:05:08;21.35;;;11.43;;
21356;SDS011;10836;53.068;18.234;2022-08-21T04:07:36;19.52;;;10.80;;
21356;SDS011;10836;53.068;18.234;2022-08-21T04:10:04;19.63;;;10.18;;
21356;SDS011;10836;53.068;18.234;2022-08-21T04:12:33;17.88;;;10.73;;
21356;SDS011;10836;53.068;18.234;2022-08-21T04:15:01;21.15;;;10.65;;
21356;SDS011;10836;53.068;18.234;2022-08-21T04:17:29;17.10;;;11.13;;
21356;SDS011;10836;53.068;18.234;2022-08-21T04:19:56;23.05;;;11.13;;
21356;SDS011;10836;53.068;18.234;2022-08-21T04:22:23;20.83;;;11.20;;
21356;SDS011;10836;53.068;18.234;2022-08-21T04:24:50;22.98;;;12.90;;
21356;SDS011;10836;53.068;18.234;2022-08-21T04:27:17;19.35;;;12.15;;
21356;SDS011;10836;53.068;18.234;2022-08-21T04:29:44;22.42;;;12.63;;
21356;SDS011;10836;53.068;18.234;2022-08-21T04:32:11;21.20;;;12.27;;
21356;SDS011;10836;53.068;18.234;2022-08-21T04:34:38;18.27;;;11.32;;
21356;SDS011;10836;53.068;18.234;2022-08-21T04:37:05;20.00;;;12.82;;
21356;SDS011;10836;53.068;18.234;2022-08-21T04:39:33;23.40;;;12.25;;
21356;SDS011;10836;53.068;18.234;2022-08-21T04:42:00;20.40;;;12.30;;
21356;SDS011;10836;53.068;18.234;2022-08-21T04:44:28;21.05;;;13.25;;
21356;SDS011;10836;53.068;18.234;2022-08-21T04:46:55;22.33;;;11.50;;
21356;SDS011;10836;53.068;18.234;2022-08-21T04:49:22;17.40;;;11.30;;
21356;SDS011;10836;53.068;18.234;2022-08-21T04:51:49;21.95;;;12.20;;
21356;SDS011;10836;53.068;18.234;2022-08-21T04:54:17;18.70;;;11.90;;
21356;SDS011;10836;53.068;18.234;2022-08-21T04:56:48;19.85;;;12.30;;
21356;SDS011;10836;53.068;18.234;2022-08-21T04:59:19;24.08;;;12.55;;
21356;SDS011;10836;53.068;18.234;2022-08-21T05:01:49;20.83;;;11.85;;
21356;SDS011;10836;53.068;18.234;2022-08-21T05:04:18;22.35;;;12.20;;
21356;SDS011;10836;53.068;18.234;2022-08-21T05:06:50;20.13;;;12.25;;
21356;SDS011;10836;53.068;18.234;2022-08-21T05:09:21;19.02;;;14.00;;
21356;SDS011;10836;53.068;18.234;2022-08-21T05:11:48;24.15;;;15.90;;
21356;SDS011;10836;53.068;18.234;2022-08-21T05:14:17;23.35;;;16.35;;
21356;SDS011;10836;53.068;18.234;2022-08-21T05:16:44;22.33;;;16.08;;
21356;SDS011;10836;53.068;18.234;2022-08-21T05:19:12;24.38;;;15.50;;
21356;SDS011;10836;53.068;18.234;2022-08-21T05:21:41;22.52;;;15.75;;
21356;SDS011;10836;53.068;18.234;2022-08-21T05:24:10;23.38;;;16.42;;
21356;SDS011;10836;53.068;18.234;2022-08-21T05:26:38;22.42;;;16.02;;
21356;SDS011;10836;53.068;18.234;2022-08-21T05:29:12;26.85;;;15.70;;
21356;SDS011;10836;53.068;18.234;2022-08-21T05:31:45;25.15;;;16.73;;
21356;SDS011;10836;53.068;18.234;2022-08-21T05:34:14;26.90;;;17.20;;
21356;SDS011;10836;53.068;18.234;2022-08-21T05:36:45;28.15;;;17.40;;
21356;SDS011;10836;53.068;18.234;2022-08-21T05:39:13;28.00;;;17.23;;
21356;SDS011;10836;53.068;18.234;2022-08-21T05:41:41;26.85;;;17.90;;
21356;SDS011;10836;53.068;18.234;2022-08-21T05:44:08;34.75;;;21.58;;
21356;SDS011;10836;53.068;18.234;2022-08-21T05:46:36;28.08;;;18.52;;
21356;SDS011;10836;53.068;18.234;2022-08-21T05:49:03;32.20;;;20.05;;
21356;SDS011;10836;53.068;18.234;2022-08-21T05:51:30;26.50;;;19.08;;
21356;SDS011;10836;53.068;18.234;2022-08-21T05:53:57;26.45;;;17.40;;
21356;SDS011;10836;53.068;18.234;2022-08-21T05:56:25;25.90;;;16.77;;
21356;SDS011;10836;53.068;18.234;2022-08-21T05:58:52;28.13;;;16.67;;
21356;SDS011;10836;53.068;18.234;2022-08-21T06:01:19;23.73;;;16.17;;
21356;SDS011;10836;53.068;18.234;2022-08-21T06:03:47;23.15;;;17.42;;
21356;SDS011;10836;53.068;18.234;2022-08-21T06:06:14;26.15;;;16.88;;
21356;SDS011;10836;53.068;18.234;2022-08-21T06:08:42;22.73;;;16.25;;
21356;SDS011;10836;53.068;18.234;2022-08-21T06:11:09;25.05;;;17.05;;
21356;SDS011;10836;53.068;18.234;2022-08-21T06:13:37;25.45;;;17.80;;
21356;SDS011;10836;53.068;18.234;2022-08-21T06:18:33;30.80;;;19.65;;
21356;SDS011;10836;53.068;18.234;2022-08-21T06:21:01;24.42;;;18.50;;
21356;SDS011;10836;53.068;18.234;2022-08-21T06:23:29;26.45;;;17.58;;
21356;SDS011;10836;53.068;18.234;2022-08-21T06:26:00;22.02;;;17.77;;
21356;SDS011;10836;53.068;18.234;2022-08-21T06:28:28;22.35;;;17.70;;
21356;SDS011;10836;53.068;18.234;2022-08-21T06:30:55;27.88;;;19.65;;
21356;SDS011;10836;53.068;18.234;2022-08-21T06:33:22;25.42;;;18.40;;
21356;SDS011;10836;53.068;18.234;2022-08-21T06:35:54;29.65;;;20.25;;
21356;SDS011;10836;53.068;18.234;2022-08-21T06:38:21;32.65;;;20.73;;
21356;SDS011;10836;53.068;18.234;2022-08-21T06:40:49;30.05;;;20.45;;
21356;SDS011;10836;53.068;18.234;2022-08-21T06:43:17;34.40;;;21.10;;
21356;SDS011;10836;53.068;18.234;2022-08-21T06:45:45;31.73;;;22.10;;
21356;SDS011;10836;53.068;18.234;2022-08-21T06:48:13;27.45;;;20.33;;
21356;SDS011;10836;53.068;18.234;2022-08-21T06:50:45;28.00;;;20.50;;
21356;SDS011;10836;53.068;18.234;2022-08-21T06:53:15;27.50;;;19.77;;
21356;SDS011;10836;53.068;18.234;2022-08-21T06:55:44;26.05;;;18.40;;
21356;SDS011;10836;53.068;18.234;2022-08-21T06:58:12;30.42;;;19.80;;
21356;SDS011;10836;53.068;18.234;2022-08-21T07:00:41;28.55;;;19.23;;
21356;SDS011;10836;53.068;18.234;2022-08-21T07:03:19;32.80;;;22.45;;
21356;SDS011;10836;53.068;18.234;2022-08-21T07:05:52;32.17;;;22.20;;
21356;SDS011;10836;53.068;18.234;2022-08-21T07:08:20;31.48;;;23.35;;
21356;SDS011;10836;53.068;18.234;2022-08-21T07:10:48;36.00;;;23.98;;
21356;SDS011;10836;53.068;18.234;2022-08-21T07:13:15;36.03;;;23.60;;
21356;SDS011;10836;53.068;18.234;2022-08-21T07:15:43;29.95;;;23.02;;
21356;SDS011;10836;53.068;18.234;2022-08-21T07:18:11;29.40;;;20.17;;
21356;SDS011;10836;53.068;18.234;2022-08-21T07:20:40;26.52;;;19.63;;
21356;SDS011;10836;53.068;18.234;2022-08-21T07:23:26;24.30;;;17.48;;
21356;SDS011;10836;53.068;18.234;2022-08-21T07:25:57;23.38;;;16.67;;
21356;SDS011;10836;53.068;18.234;2022-08-21T07:28:26;22.80;;;15.23;;
21356;SDS011;10836;53.068;18.234;2022-08-21T07:30:55;20.00;;;12.35;;
21356;SDS011;10836;53.068;18.234;2022-08-21T07:33:25;17.65;;;13.02;;
21356;SDS011;10836;53.068;18.234;2022-08-21T07:35:53;12.07;;;10.05;;
21356;SDS011;10836;53.068;18.234;2022-08-21T07:38:22;13.95;;;9.27;;
21356;SDS011;10836;53.068;18.234;2022-08-21T07:40:50;12.27;;;9.02;;
21356;SDS011;10836;53.068;18.234;2022-08-21T07:43:19;12.27;;;9.45;;
21356;SDS011;10836;53.068;18.234;2022-08-21T07:45:48;12.18;;;9.07;;
21356;SDS011;10836;53.068;18.234;2022-08-21T07:48:18;10.93;;;8.30;;
21356;SDS011;10836;53.068;18.234;2022-08-21T07:50:45;12.02;;;8.93;;
21356;SDS011;10836;53.068;18.234;2022-08-21T07:53:12;12.50;;;8.90;;
21356;SDS011;10836;53.068;18.234;2022-08-21T07:55:40;14.65;;;8.68;;
21356;SDS011;10836;53.068;18.234;2022-08-21T07:58:08;13.10;;;9.13;;
21356;SDS011;10836;53.068;18.234;2022-08-21T08:00:35;12.18;;;9.75;;
21356;SDS011;10836;53.068;18.234;2022-08-21T08:03:02;11.18;;;8.50;;
21356;SDS011;10836;53.068;18.234;2022-08-21T08:05:29;14.95;;;9.57;;
21356;SDS011;10836;53.068;18.234;2022-08-21T08:07:58;15.02;;;10.45;;
21356;SDS011;10836;53.068;18.234;2022-08-21T08:10:26;14.57;;;10.60;;
21356;SDS011;10836;53.068;18.234;2022-08-21T08:12:54;15.50;;;11.60;;
21356;SDS011;10836;53.068;18.234;2022-08-21T08:15:22;17.38;;;11.82;;
21356;SDS011;10836;53.068;18.234;2022-08-21T08:17:53;16.05;;;12.20;;
21356;SDS011;10836;53.068;18.234;2022-08-21T08:20:21;15.45;;;11.88;;
21356;SDS011;10836;53.068;18.234;2022-08-21T08:22:49;17.52;;;11.50;;
21356;SDS011;10836;53.068;18.234;2022-08-21T08:25:17;16.60;;;10.90;;
21356;SDS011;10836;53.068;18.234;2022-08-21T08:27:45;19.77;;;12.25;;
21356;SDS011;10836;53.068;18.234;2022-08-21T08:30:14;18.92;;;12.10;;
21356;SDS011;10836;53.068;18.234;2022-08-21T08:32:43;13.52;;;11.43;;
21356;SDS011;10836;53.068;18.234;2022-08-21T08:35:11;14.50;;;10.70;;
21356;SDS011;10836;53.068;18.234;2022-08-21T08:37:39;14.25;;;10.27;;
21356;SDS011;10836;53.068;18.234;2022-08-21T08:40:12;14.15;;;9.63;;
21356;SDS011;10836;53.068;18.234;2022-08-21T08:42:41;13.75;;;9.77;;
21356;SDS011;10836;53.068;18.234;2022-08-21T08:45:09;14.10;;;9.93;;
21356;SDS011;10836;53.068;18.234;2022-08-21T08:47:44;13.45;;;9.60;;
21356;SDS011;10836;53.068;18.234;2022-08-21T08:50:18;14.52;;;9.88;;
21356;SDS011;10836;53.068;18.234;2022-08-21T08:52:49;12.48;;;9.25;;
21356;SDS011;10836;53.068;18.234;2022-08-21T08:58:04;13.73;;;8.70;;
21356;SDS011;10836;53.068;18.234;2022-08-21T09:00:32;12.00;;;9.30;;
21356;SDS011;10836;53.068;18.234;2022-08-21T09:03:01;13.77;;;9.48;;
21356;SDS011;10836;53.068;18.234;2022-08-21T09:08:11;16.35;;;9.45;;
21356;SDS011;10836;53.068;18.234;2022-08-21T09:10:52;11.23;;;8.77;;
21356;SDS011;10836;53.068;18.234;2022-08-21T09:13:42;13.38;;;9.32;;
21356;SDS011;10836;53.068;18.234;2022-08-21T09:24:01;13.93;;;9.60;;
21356;SDS011;10836;53.068;18.234;2022-08-21T09:29:52;13.75;;;9.80;;
21356;SDS011;10836;53.068;18.234;2022-08-21T09:32:23;14.73;;;10.13;;
21356;SDS011;10836;53.068;18.234;2022-08-21T09:35:04;14.57;;;10.13;;
21356;SDS011;10836;53.068;18.234;2022-08-21T09:45:38;9.40;;;7.82;;
21356;SDS011;10836;53.068;18.234;2022-08-21T09:48:23;13.63;;;8.70;;
21356;SDS011;10836;53.068;18.234;2022-08-21T09:50:52;9.23;;;7.75;;
21356;SDS011;10836;53.068;18.234;2022-08-21T09:53:24;13.80;;;7.47;;
21356;SDS011;10836;53.068;18.234;2022-08-21T09:55:59;9.40;;;7.28;;
21356;SDS011;10836;53.068;18.234;2022-08-21T09:58:51;13.52;;;8.40;;
21356;SDS011;10836;53.068;18.234;2022-08-21T10:01:20;12.27;;;7.90;;
21356;SDS011;10836;53.068;18.234;2022-08-21T10:04:00;12.43;;;7.38;;
21356;SDS011;10836;53.068;18.234;2022-08-21T10:06:34;10.35;;;7.22;;
21356;SDS011;10836;53.068;18.234;2022-08-21T10:09:09;8.30;;;6.45;;
21356;SDS011;10836;53.068;18.234;2022-08-21T10:11:50;9.73;;;6.53;;
21356;SDS011;10836;53.068;18.234;2022-08-21T10:14:38;10.82;;;7.00;;
21356;SDS011;10836;53.068;18.234;2022-08-21T10:17:58;9.38;;;6.65;;
21356;SDS011;10836;53.068;18.234;2022-08-21T10:20:34;10.30;;;6.40;;
21356;SDS011;10836;53.068;18.234;2022-08-21T10:26:26;10.63;;;7.30;;
21356;SDS011;10836;53.068;18.234;2022-08-21T10:31:54;11.90;;;8.00;;
21356;SDS011;10836;53.068;18.234;2022-08-21T10:42:28;9.15;;;6.53;;
21356;SDS011;10836;53.068;18.234;2022-08-21T10:45:10;11.02;;;7.88;;
21356;SDS011;10836;53.068;18.234;2022-08-21T10:47:59;7.68;;;6.18;;
21356;SDS011;10836;53.068;18.234;2022-08-21T10:53:28;8.27;;;6.75;;
21356;SDS011;10836;53.068;18.234;2022-08-21T10:56:12;9.60;;;6.88;;
21356;SDS011;10836;53.068;18.234;2022-08-21T10:58:40;10.68;;;6.47;;
21356;SDS011;10836;53.068;18.234;2022-08-21T11:01:16;8.13;;;6.20;;
21356;SDS011;10836;53.068;18.234;2022-08-21T11:03:51;9.15;;;7.03;;
21356;SDS011;10836;53.068;18.234;2022-08-21T11:06:22;9.35;;;6.70;;
21356;SDS011;10836;53.068;18.234;2022-08-21T11:08:52;10.32;;;6.90;;
21356;SDS011;10836;53.068;18.234;2022-08-21T11:16:53;11.75;;;6.78;;
21356;SDS011;10836;53.068;18.234;2022-08-21T11:24:54;10.57;;;6.72;;
21356;SDS011;10836;53.068;18.234;2022-08-21T11:27:39;9.38;;;6.95;;
21356;SDS011;10836;53.068;18.234;2022-08-21T11:30:12;8.45;;;6.38;;
21356;SDS011;10836;53.068;18.234;2022-08-21T11:40:59;9.10;;;6.80;;
21356;SDS011;10836;53.068;18.234;2022-08-21T11:43:40;11.23;;;6.63;;
21356;SDS011;10836;53.068;18.234;2022-08-21T11:52:07;11.38;;;7.15;;
21356;SDS011;10836;53.068;18.234;2022-08-21T11:57:30;10.68;;;6.13;;
21356;SDS011;10836;53.068;18.234;2022-08-21T12:02:53;11.30;;;5.63;;
21356;SDS011;10836;53.068;18.234;2022-08-21T12:05:30;9.00;;;6.03;;
21356;SDS011;10836;53.068;18.234;2022-08-21T12:08:08;8.50;;;5.68;;
21356;SDS011;10836;53.068;18.234;2022-08-21T12:11:00;7.45;;;5.53;;
21356;SDS011;10836;53.068;18.234;2022-08-21T12:13:29;11.15;;;5.45;;
21356;SDS011;10836;53.068;18.234;2022-08-21T12:18:35;9.43;;;4.95;;
21356;SDS011;10836;53.068;18.234;2022-08-21T12:24:18;8.65;;;4.45;;
21356;SDS011;10836;53.068;18.234;2022-08-21T12:26:29;8.05;;;4.70;;
21356;SDS011;10836;53.068;18.234;2022-08-21T12:29:07;5.97;;;4.13;;
21356;SDS011;10836;53.068;18.234;2022-08-21T12:32:25;6.47;;;4.07;;
21356;SDS011;10836;53.068;18.234;2022-08-21T12:35:07;5.45;;;4.10;;
21356;SDS011;10836;53.068;18.234;2022-08-21T12:38:52;8.50;;;4.18;;
21356;SDS011;10836;53.068;18.234;2022-08-21T12:40:55;5.10;;;3.75;;
21356;SDS011;10836;53.068;18.234;2022-08-21T12:43:28;6.65;;;3.47;;
21356;SDS011;10836;53.068;18.234;2022-08-21T12:46:04;7.30;;;3.75;;
21356;SDS011;10836;53.068;18.234;2022-08-21T12:48:39;6.18;;;3.85;;
21356;SDS011;10836;53.068;18.234;2022-08-21T12:51:12;4.90;;;3.55;;
21356;SDS011;10836;53.068;18.234;2022-08-21T12:56:20;4.97;;;3.88;;
21356;SDS011;10836;53.068;18.234;2022-08-21T12:58:50;5.85;;;3.15;;
21356;SDS011;10836;53.068;18.234;2022-08-21T13:01:27;5.75;;;3.53;;
21356;SDS011;10836;53.068;18.234;2022-08-21T13:03:58;5.00;;;2.92;;
21356;SDS011;10836;53.068;18.234;2022-08-21T13:06:32;3.28;;;2.90;;
21356;SDS011;10836;53.068;18.234;2022-08-21T13:09:05;2.90;;;2.47;;
21356;SDS011;10836;53.068;18.234;2022-08-21T13:11:36;3.53;;;2.70;;
21356;SDS011;10836;53.068;18.234;2022-08-21T13:14:13;7.05;;;3.25;;
21356;SDS011;10836;53.068;18.234;2022-08-21T13:16:47;6.00;;;2.78;;
21356;SDS011;10836;53.068;18.234;2022-08-21T13:19:22;4.95;;;2.70;;
21356;SDS011;10836;53.068;18.234;2022-08-21T13:21:50;3.55;;;2.60;;
21356;SDS011;10836;53.068;18.234;2022-08-21T13:24:20;4.07;;;2.70;;
21356;SDS011;10836;53.068;18.234;2022-08-21T13:27:20;7.28;;;2.97;;
21356;SDS011;10836;53.068;18.234;2022-08-21T13:30:06;2.75;;;2.30;;
21356;SDS011;10836;53.068;18.234;2022-08-21T13:32:40;3.72;;;2.40;;
21356;SDS011;10836;53.068;18.234;2022-08-21T13:35:20;4.35;;;2.70;;
21356;SDS011;10836;53.068;18.234;2022-08-21T13:37:52;4.57;;;2.75;;
21356;SDS011;10836;53.068;18.234;2022-08-21T13:40:31;7.80;;;3.05;;
21356;SDS011;10836;53.068;18.234;2022-08-21T13:43:13;6.05;;;3.20;;
21356;SDS011;10836;53.068;18.234;2022-08-21T13:45:49;5.22;;;2.80;;
21356;SDS011;10836;53.068;18.234;2022-08-21T13:48:19;3.45;;;2.42;;
21356;SDS011;10836;53.068;18.234;2022-08-21T13:50:48;4.43;;;2.90;;
21356;SDS011;10836;53.068;18.234;2022-08-21T13:53:20;3.70;;;2.75;;
21356;SDS011;10836;53.068;18.234;2022-08-21T13:55:56;4.90;;;3.13;;
21356;SDS011;10836;53.068;18.234;2022-08-21T13:58:50;5.35;;;2.78;;
21356;SDS011;10836;53.068;18.234;2022-08-21T14:01:26;4.40;;;2.53;;
21356;SDS011;10836;53.068;18.234;2022-08-21T14:03:58;3.22;;;2.47;;
21356;SDS011;10836;53.068;18.234;2022-08-21T14:06:33;4.13;;;2.55;;
21356;SDS011;10836;53.068;18.234;2022-08-21T14:12:27;4.35;;;2.55;;
21356;SDS011;10836;53.068;18.234;2022-08-21T14:15:01;4.38;;;2.78;;
21356;SDS011;10836;53.068;18.234;2022-08-21T14:17:33;4.55;;;2.70;;
21356;SDS011;10836;53.068;18.234;2022-08-21T14:20:05;4.03;;;2.78;;
21356;SDS011;10836;53.068;18.234;2022-08-21T14:25:02;3.97;;;2.72;;
21356;SDS011;10836;53.068;18.234;2022-08-21T14:27:33;6.78;;;2.45;;
21356;SDS011;10836;53.068;18.234;2022-08-21T14:30:09;3.25;;;2.30;;
21356;SDS011;10836;53.068;18.234;2022-08-21T14:32:58;5.05;;;2.35;;
21356;SDS011;10836;53.068;18.234;2022-08-21T14:35:27;3.03;;;2.08;;
21356;SDS011;10836;53.068;18.234;2022-08-21T14:37:55;4.35;;;2.25;;
21356;SDS011;10836;53.068;18.234;2022-08-21T14:40:23;4.63;;;2.25;;
21356;SDS011;10836;53.068;18.234;2022-08-21T14:42:51;5.20;;;2.30;;
21356;SDS011;10836;53.068;18.234;2022-08-21T14:45:24;2.72;;;2.30;;
21356;SDS011;10836;53.068;18.234;2022-08-21T14:47:55;2.33;;;1.88;;
21356;SDS011;10836;53.068;18.234;2022-08-21T14:50:23;5.88;;;2.25;;
21356;SDS011;10836;53.068;18.234;2022-08-21T14:52:54;5.22;;;2.83;;
21356;SDS011;10836;53.068;18.234;2022-08-21T14:55:22;6.72;;;2.53;;
21356;SDS011;10836;53.068;18.234;2022-08-21T14:57:50;3.42;;;1.98;;
21356;SDS011;10836;53.068;18.234;2022-08-21T15:00:20;2.45;;;2.08;;
21356;SDS011;10836;53.068;18.234;2022-08-21T15:03:01;3.72;;;2.50;;
21356;SDS011;10836;53.068;18.234;2022-08-21T15:05:28;4.22;;;2.60;;
21356;SDS011;10836;53.068;18.234;2022-08-21T15:08:00;3.20;;;2.47;;
21356;SDS011;10836;53.068;18.234;2022-08-21T15:10:28;3.88;;;2.30;;
21356;SDS011;10836;53.068;18.234;2022-08-21T15:12:59;6.50;;;2.67;;
21356;SDS011;10836;53.068;18.234;2022-08-21T15:15:28;3.08;;;2.13;;
21356;SDS011;10836;53.068;18.234;2022-08-21T15:18:00;2.90;;;2.20;;
21356;SDS011;10836;53.068;18.234;2022-08-21T15:20:27;3.50;;;2.28;;
21356;SDS011;10836;53.068;18.234;2022-08-21T15:22:54;4.72;;;2.17;;
21356;SDS011;10836;53.068;18.234;2022-08-21T15:25:22;3.72;;;2.33;;
21356;SDS011;10836;53.068;18.234;2022-08-21T15:27:49;3.28;;;2.40;;
21356;SDS011;10836;53.068;18.234;2022-08-21T15:30:16;3.72;;;2.45;;
21356;SDS011;10836;53.068;18.234;2022-08-21T15:32:44;2.30;;;2.10;;
21356;SDS011;10836;53.068;18.234;2022-08-21T15:35:11;2.92;;;2.08;;
21356;SDS011;10836;53.068;18.234;2022-08-21T15:37:38;6.13;;;2.42;;
21356;SDS011;10836;53.068;18.234;2022-08-21T15:40:06;3.20;;;2.20;;
21356;SDS011;10836;53.068;18.234;2022-08-21T15:42:34;4.28;;;2.03;;
21356;SDS011;10836;53.068;18.234;2022-08-21T15:45:02;3.70;;;2.05;;
21356;SDS011;10836;53.068;18.234;2022-08-21T15:47:34;3.75;;;2.40;;
21356;SDS011;10836;53.068;18.234;2022-08-21T15:50:03;3.65;;;2.38;;
21356;SDS011;10836;53.068;18.234;2022-08-21T15:52:33;3.78;;;2.58;;
21356;SDS011;10836;53.068;18.234;2022-08-21T15:55:00;6.20;;;2.70;;
21356;SDS011;10836;53.068;18.234;2022-08-21T15:57:28;2.85;;;2.20;;
21356;SDS011;10836;53.068;18.234;2022-08-21T16:02:53;4.50;;;2.50;;
21356;SDS011;10836;53.068;18.234;2022-08-21T16:05:22;4.85;;;2.65;;
21356;SDS011;10836;53.068;18.234;2022-08-21T16:07:50;3.72;;;2.83;;
21356;SDS011;10836;53.068;18.234;2022-08-21T16:10:19;5.30;;;2.75;;
21356;SDS011;10836;53.068;18.234;2022-08-21T16:12:53;4.82;;;2.67;;
21356;SDS011;10836;53.068;18.234;2022-08-21T16:15:23;4.25;;;2.88;;
21356;SDS011;10836;53.068;18.234;2022-08-21T16:17:52;5.88;;;2.92;;